Terminal Aerodrome Forecast
Issued by NWS Shreveport, LA

Home | Current Version | Previous Version | Text Only | Print | Product List | Glossary On
Versions: 1 2 3 4 5 6 7 8 9 10 11 12 13 14 15 16
000
FTUS44 KSHV 252300
TAFTYR
TAF
KTYR 252326Z 2600/2624 31008KT P6SM SKC
      TEMPO 2600/2602 29014G22KT
     FM260700 29005KT P6SM SKC
     FM261800 25010KT P6SM SKC=

USA.gov is the U.S. government's official web portal to all federal, state and local government web resources and services.